createdAt,value
2023-01-04T00:01:16.989Z,13.10
2023-01-04T00:03:44.756Z,13.40
2023-01-04T00:06:14.600Z,13.60
2023-01-04T00:08:42.529Z,13.20
2023-01-04T00:11:18.803Z,13.10
2023-01-04T00:13:47.250Z,13.50
2023-01-04T00:16:17.645Z,13.40
2023-01-04T00:18:45.406Z,13.70
2023-01-04T00:21:27.915Z,13.40
2023-01-04T00:23:58.281Z,13.40
2023-01-04T00:26:28.678Z,13.20
2023-01-04T00:29:00.252Z,13.40
2023-01-04T00:31:28.926Z,13.30
2023-01-04T00:33:58.751Z,13.70
2023-01-04T00:36:27.364Z,13.20
2023-01-04T00:39:08.218Z,13.50
2023-01-04T00:42:08.007Z,13.20
2023-01-04T00:44:35.923Z,13.20
2023-01-04T00:47:04.696Z,13.20
2023-01-04T00:49:32.881Z,13.20
2023-01-04T00:52:00.691Z,13.20
2023-01-04T00:54:28.275Z,13.40
2023-01-04T00:56:55.538Z,13.20
2023-01-04T00:59:23.194Z,13.20
2023-01-04T01:01:51.768Z,13.30
2023-01-04T01:04:22.154Z,13.40
2023-01-04T01:06:50.108Z,13.30
2023-01-04T01:09:17.589Z,13.80
2023-01-04T01:11:45.260Z,13.20
2023-01-04T01:14:21.609Z,13.50
2023-01-04T01:16:58.526Z,13.40
2023-01-04T01:19:27.828Z,13.10
2023-01-04T01:21:57.862Z,13.20
2023-01-04T01:24:26.517Z,13.10
2023-01-04T01:26:54.823Z,13.90
2023-01-04T01:29:22.267Z,13.40
2023-01-04T01:31:49.702Z,13.20
2023-01-04T01:34:17.037Z,13.80
2023-01-04T01:36:44.380Z,12.80
2023-01-04T01:39:11.751Z,13.10
2023-01-04T01:41:39.495Z,13.20
2023-01-04T01:44:12.861Z,13.20
2023-01-04T01:46:43.156Z,13.20
2023-01-04T01:49:21.201Z,13.70
2023-01-04T01:51:48.573Z,13.20
2023-01-04T01:54:26.689Z,13.10
2023-01-04T01:56:57.918Z,13.10
2023-01-04T01:59:27.699Z,13.10
2023-01-04T02:01:55.055Z,13.10
2023-01-04T02:04:22.413Z,13.60
2023-01-04T02:06:53.166Z,13.10
2023-01-04T02:09:22.949Z,13.30
2023-01-04T02:11:50.234Z,13.10
2023-01-04T02:14:28.316Z,13.20
2023-01-04T02:17:32.337Z,13.20
2023-01-04T02:20:11.773Z,13.20
2023-01-04T02:22:48.178Z,13.20
2023-01-04T02:25:33.925Z,13.30
2023-01-04T02:28:32.064Z,13.40
2023-01-04T02:31:27.212Z,13.20
2023-01-04T02:33:57.349Z,13.20
2023-01-04T02:36:42.514Z,13.20
2023-01-04T02:39:47.844Z,13.20
2023-01-04T02:42:18.085Z,13.20
2023-01-04T02:45:01.331Z,13.20
2023-01-04T02:47:57.740Z,13.30
2023-01-04T02:50:31.491Z,13.10
2023-01-04T02:53:12.844Z,13.50
2023-01-04T02:55:58.495Z,13.20
2023-01-04T02:58:36.193Z,13.20
2023-01-04T03:01:47.168Z,13.20
2023-01-04T03:04:51.142Z,13.10
2023-01-04T03:07:24.059Z,13.10
2023-01-04T03:09:57.619Z,13.10
2023-01-04T03:12:33.931Z,13.20
2023-01-04T03:15:28.031Z,13.30
2023-01-04T03:18:19.476Z,13.10
2023-01-04T03:20:48.434Z,13.20
2023-01-04T03:23:37.837Z,13.30
2023-01-04T03:26:31.486Z,13.20
2023-01-04T03:29:26.130Z,13.20
2023-01-04T03:32:17.920Z,13.60
2023-01-04T03:35:03.684Z,13.90
2023-01-04T03:37:38.751Z,13.30
2023-01-04T03:40:45.498Z,13.60
2023-01-04T03:43:46.292Z,13.20
2023-01-04T03:46:39.083Z,13.60
2023-01-04T03:49:17.693Z,13.80
2023-01-04T03:51:46.413Z,13.20
2023-01-04T03:54:19.616Z,13.50
2023-01-04T03:56:48.627Z,13.20
2023-01-04T03:59:16.199Z,13.30
2023-01-04T04:01:45.114Z,13.30
2023-01-04T04:04:31.041Z,13.40
2023-01-04T04:07:16.853Z,13.20
2023-01-04T04:09:44.151Z,13.30
2023-01-04T04:12:11.473Z,13.20
2023-01-04T04:14:38.729Z,13.30
2023-01-04T04:17:05.962Z,13.30
2023-01-04T04:19:33.185Z,13.30
2023-01-04T04:22:00.479Z,13.30
2023-01-04T04:24:28.152Z,13.30
2023-01-04T04:26:56.119Z,13.40
2023-01-04T04:29:24.476Z,13.60
2023-01-04T04:31:52.086Z,13.50
2023-01-04T04:34:19.475Z,13.80
2023-01-04T04:36:47.046Z,13.30
2023-01-04T04:39:14.459Z,13.70
2023-01-04T04:41:42.069Z,13.30
2023-01-04T04:44:12.331Z,13.60
2023-01-04T04:46:40.246Z,13.30
2023-01-04T04:49:08.543Z,13.30
2023-01-04T04:51:36.247Z,13.20
2023-01-04T04:54:04.382Z,13.40
2023-01-04T04:56:31.711Z,13.40
2023-01-04T04:58:58.942Z,13.60
2023-01-04T05:01:26.279Z,13.50
2023-01-04T05:03:53.660Z,13.40
2023-01-04T05:06:20.888Z,13.40
2023-01-04T05:08:48.144Z,13.40
2023-01-04T05:11:15.478Z,13.80
2023-01-04T05:13:42.757Z,13.40
2023-01-04T05:16:10.180Z,14.00
2023-01-04T05:18:37.553Z,13.50
2023-01-04T05:21:04.909Z,13.40
2023-01-04T05:23:32.264Z,13.50
2023-01-04T05:26:01.849Z,14.10
2023-01-04T05:28:29.151Z,13.50
2023-01-04T05:30:57.190Z,13.50
2023-01-04T05:33:27.749Z,13.90
2023-01-04T05:35:57.026Z,13.70
2023-01-04T05:38:24.555Z,13.80
2023-01-04T05:40:52.538Z,13.50
2023-01-04T05:43:21.098Z,13.60
2023-01-04T05:45:53.867Z,13.20
2023-01-04T05:48:22.587Z,13.20
2023-01-04T05:50:49.944Z,13.40
2023-01-04T05:53:18.274Z,13.50
2023-01-04T05:55:48.516Z,13.00
2023-01-04T05:58:16.006Z,13.70
2023-01-04T06:00:43.357Z,13.20
2023-01-04T06:03:10.815Z,13.00
2023-01-04T06:05:38.227Z,13.80
2023-01-04T06:08:05.941Z,13.70
2023-01-04T06:10:33.271Z,12.90
2023-01-04T06:13:00.658Z,12.90
2023-01-04T06:15:27.934Z,13.70
2023-01-04T06:17:55.251Z,13.00
2023-01-04T06:20:22.822Z,13.20
2023-01-04T06:22:50.087Z,12.90
2023-01-04T06:25:17.561Z,12.80
2023-01-04T06:27:44.860Z,12.80
2023-01-04T06:30:12.145Z,12.90
2023-01-04T06:35:07.274Z,12.80
2023-01-04T06:37:35.611Z,12.90
2023-01-04T06:40:03.441Z,12.90
2023-01-04T06:42:45.857Z,12.90
2023-01-04T06:45:15.276Z,13.30
2023-01-04T06:48:12.164Z,12.90
2023-01-04T06:50:46.156Z,12.90
2023-01-04T06:53:13.701Z,12.90
2023-01-04T06:55:44.632Z,12.90
2023-01-04T06:58:17.414Z,12.90
2023-01-04T07:00:46.309Z,13.10
2023-01-04T07:03:16.230Z,12.90
2023-01-04T07:05:44.687Z,13.10
2023-01-04T07:08:15.276Z,13.10
2023-01-04T07:10:42.881Z,13.00
2023-01-04T07:13:10.870Z,13.00
2023-01-04T07:15:40.970Z,13.10
2023-01-04T07:18:10.195Z,13.30
2023-01-04T07:20:38.900Z,12.90
2023-01-04T07:23:07.589Z,12.90
2023-01-04T07:25:35.241Z,12.90
2023-01-04T07:28:03.142Z,12.90
2023-01-04T07:30:30.830Z,13.10
2023-01-04T07:32:58.873Z,13.10
2023-01-04T07:35:29.740Z,12.90
2023-01-04T07:38:00.949Z,13.10
2023-01-04T07:40:28.800Z,12.90
2023-01-04T07:42:58.703Z,12.80
2023-01-04T07:45:27.005Z,12.80
2023-01-04T07:50:57.342Z,12.80
2023-01-04T07:53:24.971Z,12.80
2023-01-04T07:56:02.429Z,13.00
2023-01-04T07:58:42.867Z,12.80
2023-01-04T08:01:14.028Z,12.80
2023-01-04T08:03:41.801Z,12.80
2023-01-04T08:06:11.413Z,13.10
2023-01-04T08:08:39.191Z,12.60
2023-01-04T08:11:09.141Z,12.80
2023-01-04T08:13:36.418Z,12.80
2023-01-04T08:16:04.539Z,12.90
2023-01-04T08:18:31.825Z,12.90
2023-01-04T08:21:09.219Z,12.80
2023-01-04T08:23:37.321Z,12.90
2023-01-04T08:26:13.374Z,13.40
2023-01-04T08:28:41.510Z,12.90
2023-01-04T08:31:16.684Z,13.70
2023-01-04T08:33:45.047Z,13.40
2023-01-04T08:36:27.049Z,13.90
2023-01-04T08:39:00.928Z,13.00
2023-01-04T08:41:56.803Z,13.80
2023-01-04T08:44:25.195Z,13.10
2023-01-04T08:46:53.961Z,13.30
2023-01-04T08:49:22.740Z,13.30
2023-01-04T08:51:50.164Z,13.30
2023-01-04T08:54:18.052Z,13.30
2023-01-04T08:56:45.379Z,13.10
2023-01-04T08:59:14.022Z,13.30
2023-01-04T09:01:42.058Z,13.30
2023-01-04T09:04:09.995Z,13.20
2023-01-04T09:06:38.359Z,14.00
2023-01-04T09:09:30.107Z,13.40
2023-01-04T09:15:27.188Z,13.50
2023-01-04T09:18:33.549Z,13.40
2023-01-04T09:24:54.107Z,13.50
2023-01-04T09:27:22.952Z,13.70
2023-01-04T09:29:59.203Z,13.50
2023-01-04T09:32:27.134Z,13.60
2023-01-04T09:35:03.058Z,13.50
2023-01-04T09:37:42.787Z,13.60
2023-01-04T09:40:20.943Z,13.80
2023-01-04T09:42:51.055Z,13.80
2023-01-04T09:45:38.931Z,13.70
2023-01-04T09:48:26.214Z,13.90
2023-01-04T09:51:05.758Z,14.00
2023-01-04T09:53:43.042Z,13.70
2023-01-04T09:56:19.105Z,13.90
2023-01-04T09:58:47.266Z,14.10
2023-01-04T10:01:27.569Z,13.80
2023-01-04T10:04:42.205Z,13.70
2023-01-04T10:07:27.854Z,13.80
2023-01-04T10:09:56.468Z,13.80
2023-01-04T10:12:33.188Z,14.00
2023-01-04T10:15:27.020Z,13.90
2023-01-04T10:19:51.012Z,14.20
2023-01-04T10:21:33.367Z,13.80
2023-01-04T10:24:43.186Z,13.90
2023-01-04T10:27:16.561Z,13.70
2023-01-04T10:30:11.217Z,14.10
2023-01-04T10:33:17.325Z,13.90
2023-01-04T10:35:48.089Z,13.90
2023-01-04T10:38:36.547Z,13.90
2023-01-04T10:41:11.279Z,14.00
2023-01-04T10:44:10.913Z,14.00
2023-01-04T10:49:51.788Z,14.20
2023-01-04T10:52:51.853Z,14.00
2023-01-04T10:55:37.185Z,14.00
2023-01-04T10:58:33.338Z,14.00
2023-01-04T11:01:31.916Z,14.10
2023-01-04T11:04:12.827Z,14.10
2023-01-04T11:06:47.195Z,14.10
2023-01-04T11:09:25.476Z,14.10
2023-01-04T11:11:56.990Z,14.10
2023-01-04T11:14:25.717Z,14.10
2023-01-04T11:16:59.260Z,14.10
2023-01-04T11:19:28.721Z,14.10
2023-01-04T11:22:06.130Z,14.10
2023-01-04T11:24:48.499Z,14.00
2023-01-04T11:27:27.216Z,14.00
2023-01-04T11:29:58.303Z,13.90
2023-01-04T11:32:56.237Z,14.10
2023-01-04T11:35:48.272Z,14.10
2023-01-04T11:38:33.013Z,14.10
2023-01-04T11:41:02.875Z,14.10
2023-01-04T11:43:39.357Z,14.00
2023-01-04T11:46:41.900Z,14.20
2023-01-04T11:49:20.248Z,14.20
2023-01-04T11:51:47.656Z,14.10
2023-01-04T11:54:21.032Z,13.90
2023-01-04T11:57:12.220Z,14.10
2023-01-04T11:59:42.124Z,14.20
2023-01-04T12:05:30.094Z,14.20
2023-01-04T12:07:59.219Z,14.20
2023-01-04T12:10:30.116Z,14.00
2023-01-04T12:13:01.276Z,14.70
2023-01-04T12:16:33.219Z,14.20
2023-01-04T12:19:27.852Z,14.10
2023-01-04T12:22:02.020Z,14.10
2023-01-04T12:24:39.285Z,14.10
2023-01-04T12:27:32.053Z,14.40
2023-01-04T12:30:44.849Z,14.20
2023-01-04T12:33:33.657Z,14.20
2023-01-04T12:36:14.982Z,14.70
2023-01-04T12:38:55.009Z,14.50
2023-01-04T12:42:00.680Z,14.50
2023-01-04T12:45:00.916Z,14.30
2023-01-04T12:47:47.732Z,14.20
2023-01-04T12:50:25.355Z,14.20
2023-01-04T12:53:11.182Z,14.20
2023-01-04T12:55:44.126Z,14.40
2023-01-04T13:01:28.777Z,14.50
2023-01-04T13:04:21.046Z,14.70
2023-01-04T13:06:52.144Z,14.90
2023-01-04T13:09:25.025Z,15.20
2023-01-04T13:12:09.198Z,14.80
2023-01-04T13:14:46.599Z,14.70
2023-01-04T13:17:26.136Z,14.50
2023-01-04T13:19:54.694Z,14.30
2023-01-04T13:22:34.143Z,14.30
2023-01-04T13:25:11.582Z,14.20
2023-01-04T13:27:39.131Z,14.10
2023-01-04T13:30:30.371Z,14.10
2023-01-04T13:33:24.771Z,14.00
2023-01-04T13:36:00.513Z,14.00
2023-01-04T13:38:28.242Z,14.20
2023-01-04T13:40:55.588Z,14.10
2023-01-04T13:44:10.404Z,13.90
2023-01-04T13:46:45.004Z,13.90
2023-01-04T13:49:23.153Z,14.00
2023-01-04T13:52:01.118Z,13.70
2023-01-04T13:54:39.050Z,13.90
2023-01-04T13:57:10.150Z,13.70
2023-01-04T13:59:38.143Z,13.70
2023-01-04T14:02:20.554Z,13.70
2023-01-04T14:05:00.034Z,13.70
2023-01-04T14:07:30.250Z,13.70
2023-01-04T14:10:00.212Z,13.70
2023-01-04T14:12:32.078Z,13.60
2023-01-04T14:15:41.419Z,13.70
2023-01-04T14:18:30.274Z,13.40
2023-01-04T14:20:57.808Z,12.90
2023-01-04T14:23:34.328Z,12.40
2023-01-04T14:26:01.874Z,12.40
2023-01-04T14:28:33.820Z,12.00
2023-01-04T14:31:01.432Z,12.50
2023-01-04T14:33:48.187Z,12.00
2023-01-04T14:36:28.996Z,12.10
2023-01-04T14:39:06.268Z,12.20
2023-01-04T14:41:41.532Z,12.40
2023-01-04T14:44:16.740Z,12.70
2023-01-04T14:46:48.786Z,12.90
2023-01-04T14:49:22.130Z,13.00
2023-01-04T14:52:00.854Z,13.10
2023-01-04T14:54:29.811Z,12.70
2023-01-04T14:57:06.658Z,12.70
2023-01-04T14:59:51.241Z,12.90
2023-01-04T15:02:19.387Z,12.80
2023-01-04T15:04:49.824Z,12.90
2023-01-04T15:07:40.469Z,13.00
2023-01-04T15:10:26.784Z,13.10
2023-01-04T15:12:55.984Z,13.10
2023-01-04T15:15:23.737Z,13.20
2023-01-04T15:17:57.033Z,13.20
2023-01-04T15:20:28.060Z,13.10
2023-01-04T15:22:58.630Z,13.10
2023-01-04T15:28:34.727Z,13.00
2023-01-04T15:31:22.365Z,13.10
2023-01-04T15:33:56.429Z,13.00
2023-01-04T15:36:33.246Z,13.10
2023-01-04T15:39:04.242Z,13.10
2023-01-04T15:42:02.890Z,13.10
2023-01-04T15:44:45.243Z,13.20
2023-01-04T15:47:23.723Z,13.10
2023-01-04T15:49:56.421Z,13.40
2023-01-04T15:52:23.832Z,13.20
2023-01-04T15:54:51.373Z,13.40
2023-01-04T15:57:18.797Z,13.10
2023-01-04T15:59:59.851Z,13.30
2023-01-04T16:02:27.453Z,13.20
2023-01-04T16:05:09.095Z,12.90
2023-01-04T16:07:36.778Z,13.10
2023-01-04T16:10:04.857Z,13.80
2023-01-04T16:12:53.038Z,13.10
2023-01-04T16:15:23.959Z,13.40
2023-01-04T16:17:51.311Z,14.10
2023-01-04T16:20:19.092Z,13.30
2023-01-04T16:22:46.587Z,13.10
2023-01-04T16:25:14.350Z,13.20
2023-01-04T16:27:41.905Z,13.70
2023-01-04T16:30:13.508Z,13.30
2023-01-04T16:32:43.286Z,13.20
2023-01-04T16:35:11.699Z,13.20
2023-01-04T16:37:39.393Z,13.20
2023-01-04T16:40:08.993Z,13.10
2023-01-04T16:42:37.878Z,13.00
2023-01-04T16:45:15.469Z,13.10
2023-01-04T16:48:16.581Z,13.10
2023-01-04T16:50:52.934Z,13.10
2023-01-04T16:53:22.499Z,13.10
2023-01-04T16:55:55.514Z,13.10
2023-01-04T16:58:30.814Z,13.00
2023-01-04T17:01:35.435Z,13.00
2023-01-04T17:04:10.514Z,13.00
2023-01-04T17:06:44.928Z,13.00
2023-01-04T17:09:19.943Z,12.90
2023-01-04T17:12:46.276Z,13.20
2023-01-04T17:14:49.173Z,12.90
2023-01-04T17:17:35.383Z,13.10
2023-01-04T17:20:09.020Z,13.20
2023-01-04T17:22:36.885Z,12.90
2023-01-04T17:25:04.828Z,12.80
2023-01-04T17:27:44.597Z,12.80
2023-01-04T17:30:12.621Z,12.80
2023-01-04T17:32:40.334Z,12.80
2023-01-04T17:35:32.532Z,12.80
2023-01-04T17:38:00.470Z,12.90
2023-01-04T17:40:37.197Z,12.90
2023-01-04T17:43:10.242Z,12.80
2023-01-04T17:45:43.894Z,12.90
2023-01-04T17:48:35.404Z,12.80
2023-01-04T17:51:20.333Z,12.90
2023-01-04T17:53:48.681Z,12.60
2023-01-04T17:56:18.434Z,12.80
2023-01-04T17:58:47.275Z,12.70
2023-01-04T18:01:23.059Z,12.60
2023-01-04T18:03:56.647Z,12.70
2023-01-04T18:06:29.736Z,12.70
2023-01-04T18:09:01.140Z,12.80
2023-01-04T18:11:29.095Z,12.80
2023-01-04T18:17:05.674Z,12.70
2023-01-04T18:19:33.161Z,12.70
2023-01-04T18:22:02.202Z,13.00
2023-01-04T18:25:14.619Z,12.80
2023-01-04T18:27:45.835Z,12.90
2023-01-04T18:30:14.209Z,12.70
2023-01-04T18:32:50.731Z,12.80
2023-01-04T18:35:20.073Z,13.00
2023-01-04T18:37:50.381Z,12.60
2023-01-04T18:40:18.068Z,12.50
2023-01-04T18:42:49.738Z,12.90
2023-01-04T18:45:19.477Z,12.50
2023-01-04T18:48:02.881Z,12.60
2023-01-04T18:50:36.978Z,12.60
2023-01-04T18:53:04.371Z,12.50
2023-01-04T18:55:32.064Z,12.80
2023-01-04T18:57:59.956Z,12.40
2023-01-04T19:00:30.010Z,12.60
2023-01-04T19:02:58.065Z,12.50
2023-01-04T19:05:29.174Z,12.30
2023-01-04T19:07:56.690Z,12.30
2023-01-04T19:10:25.664Z,12.30
2023-01-04T19:12:53.258Z,12.50
2023-01-04T19:15:20.834Z,12.30
2023-01-04T19:17:48.125Z,12.30
2023-01-04T19:20:15.722Z,12.60
2023-01-04T19:22:43.165Z,12.20
2023-01-04T19:25:10.527Z,12.20
2023-01-04T19:27:38.100Z,12.20
2023-01-04T19:30:05.948Z,12.30
2023-01-04T19:32:34.073Z,12.20
2023-01-04T19:35:01.855Z,12.20
2023-01-04T19:37:29.655Z,12.20
2023-01-04T19:39:57.071Z,12.10
2023-01-04T19:42:27.396Z,12.10
2023-01-04T19:44:54.831Z,12.30
2023-01-04T19:47:22.293Z,12.10
2023-01-04T19:49:49.863Z,12.20
2023-01-04T19:52:19.587Z,12.00
2023-01-04T19:54:46.909Z,11.80
2023-01-04T19:57:14.372Z,11.90
2023-01-04T19:59:41.902Z,12.40
2023-01-04T20:02:11.838Z,12.10
2023-01-04T20:04:39.472Z,11.90
2023-01-04T20:07:06.891Z,11.90
2023-01-04T20:09:34.509Z,12.00
2023-01-04T20:12:02.209Z,12.30
2023-01-04T20:14:30.280Z,12.30
2023-01-04T20:16:57.686Z,12.00
2023-01-04T20:19:25.542Z,12.30
2023-01-04T20:21:52.926Z,11.70
2023-01-04T20:24:20.414Z,12.60
2023-01-04T20:26:48.080Z,11.70
2023-01-04T20:29:15.658Z,11.70
2023-01-04T20:31:45.800Z,11.70
2023-01-04T20:34:16.821Z,11.60
2023-01-04T20:36:44.374Z,12.10
2023-01-04T20:39:11.849Z,11.70
2023-01-04T20:41:59.557Z,11.80
2023-01-04T20:44:26.877Z,11.60
2023-01-04T20:46:54.342Z,11.70
2023-01-04T20:49:22.001Z,11.90
2023-01-04T20:51:49.611Z,11.70
2023-01-04T20:54:16.994Z,11.60
2023-01-04T20:56:44.434Z,11.60
2023-01-04T21:01:39.709Z,11.60
2023-01-04T21:04:07.255Z,11.60
2023-01-04T21:06:34.939Z,12.40
2023-01-04T21:09:02.636Z,12.20
2023-01-04T21:11:30.137Z,11.50
2023-01-04T21:13:57.544Z,11.60
2023-01-04T21:16:24.983Z,11.50
2023-01-04T21:18:52.253Z,11.50
2023-01-04T21:21:20.289Z,11.50
2023-01-04T21:23:51.726Z,11.60
2023-01-04T21:26:22.075Z,11.20
2023-01-04T21:28:49.722Z,11.60
2023-01-04T21:31:19.821Z,12.60
2023-01-04T21:33:47.718Z,11.70
2023-01-04T21:36:24.347Z,11.60
2023-01-04T21:38:53.792Z,11.60
2023-01-04T21:41:24.805Z,12.00
2023-01-04T21:43:55.009Z,11.80
2023-01-04T21:46:23.426Z,11.70
2023-01-04T21:48:55.334Z,11.60
2023-01-04T21:51:22.777Z,12.50
2023-01-04T21:53:53.896Z,12.10
2023-01-04T21:56:23.270Z,11.50
2023-01-04T21:58:50.871Z,11.70
2023-01-04T22:01:22.066Z,11.60
2023-01-04T22:03:50.387Z,11.50
2023-01-04T22:06:18.906Z,11.80
2023-01-04T22:08:47.080Z,11.70
2023-01-04T22:11:15.853Z,11.50
2023-01-04T22:13:43.727Z,11.50
2023-01-04T22:16:13.556Z,11.50
2023-01-04T22:18:41.590Z,11.60
2023-01-04T22:21:13.587Z,11.70
2023-01-04T22:23:41.358Z,11.50
2023-01-04T22:26:09.077Z,11.70
2023-01-04T22:28:37.473Z,11.50
2023-01-04T22:31:11.140Z,11.90
2023-01-04T22:33:39.633Z,11.50
2023-01-04T22:36:19.031Z,12.40
2023-01-04T22:38:49.213Z,11.50
2023-01-04T22:41:19.045Z,11.50
2023-01-04T22:43:47.117Z,11.50
2023-01-04T22:46:17.540Z,11.50
2023-01-04T22:48:45.989Z,11.80
2023-01-04T22:51:19.217Z,11.70
2023-01-04T22:53:46.628Z,11.70
2023-01-04T22:56:20.080Z,11.50
2023-01-04T22:58:54.880Z,11.50
2023-01-04T23:01:24.230Z,11.50
2023-01-04T23:03:52.208Z,11.50
2023-01-04T23:06:21.466Z,11.70
2023-01-04T23:08:55.517Z,11.70
2023-01-04T23:11:22.898Z,11.40
2023-01-04T23:14:01.640Z,11.70
2023-01-04T23:16:33.528Z,12.20
2023-01-04T23:19:02.634Z,11.70
2023-01-04T23:21:31.095Z,11.70
2023-01-04T23:23:58.622Z,11.70
2023-01-04T23:26:28.049Z,11.70
2023-01-04T23:28:56.210Z,11.50
2023-01-04T23:31:25.809Z,11.70
2023-01-04T23:33:55.467Z,11.50
2023-01-04T23:36:25.770Z,11.40
2023-01-04T23:38:58.053Z,12.00
2023-01-04T23:41:44.505Z,11.50
2023-01-04T23:44:18.180Z,11.50
2023-01-04T23:46:47.140Z,11.50
2023-01-04T23:49:14.490Z,11.70
2023-01-04T23:51:44.862Z,11.60
2023-01-04T23:54:12.319Z,11.90
2023-01-04T23:56:40.246Z,11.60
2023-01-04T23:59:27.850Z,11.60
